Fort Mill, SC (29707)

4:11 AM EDT on September 05, 2015 (GMT -0400)
Walter Elisha Park Area | | Change Station
CLOSE
Current Station
Personal Weather Station
Location: Fort Mill, SC
Elevation: 656 ft
Nearby Weather Stations

Elev 656 ft 35.01 °N, 80.95 °W | Updated 1 minute ago

Mostly Cloudy
Mostly Cloudy
72.0 °F
Feels Like 72 °F
N
2.0
Wind Variable Wind from ENE
Gusts 2.5 mph

Today
High -- | Low -- °F
--% Chance of Precip.
Yesterday
High -- | Low -- °F
Precip. -- in
6:59 AM 7:45 PM
Waning Gibbous, 51% visible
Pressure 30.06 in
Visibility 9.0 miles
Clouds Mostly Cloudy 4700 ft
Mostly Cloudy 5500 ft
Heat Index 72 °F
Dew Point 66 °F
Humidity 82%
Rainfall 0.00 in
Snow Depth Not available.
UV 0.0 out of 12
Pollen 9.50 out of 12
Air Quality Not available.
Flu Activity Not available.
METAR KUZA 050754Z AUTO 02005KT 9SM BKN047 BKN055 22/19 A3010 RMK AO2 SLP177 T02220189
Pressure 30.06 in
Visibility 9.0 miles
Clouds Mostly Cloudy 4700 ft
Mostly Cloudy 5500 ft
Heat Index 72 °F
Dew Point 66 °F
Humidity 82%
Rainfall 0.00 in
Snow Depth Not available.
UV 0.0 out of 12
Pollen 9.50 out of 12
Air Quality Not available.
Flu Activity Not available.
METAR KUZA 050754Z AUTO 02005KT 9SM BKN047 BKN055 22/19 A3010 RMK AO2 SLP177 T02220189

10-Day Weather Forecast

×

Almanac

Astronomy

Sep. 05, 2015 Rise Set
Actual Time
Civil Twilight
Nautical Twilight
Astronomical Twilight
Moon
Length of Visible Light
Length of Day
Tomorrow will be .
, % of the Moon is Illuminated

Today's Extremes

State Highs State Lows

Community

WunderPhotos

Upload Photos

1,852,438 photos uploaded!

WunderBlogs® & News

Nearby

Air Quality

  Air Quality AQ Index Pollutant
Not available.

Snow Depth

Station Depth Elevation

Earthquake Activity

City Distance Mag. Time & Date
Minimum magnitude displayed is 2.5.

Coastal Water Temperatures

Place Temperature

Stations

Nearby Weather Stations

Station Location Temp. Windchill Dew Point Humidity Wind Precip. Elev Updated Type